sensor_id;sensor_type;location;lat;lon;timestamp;temperature;humidity
41756;DHT22;27435;48.480;9.258;2024-03-22T00:00:11;8.40;99.00
41756;DHT22;27435;48.480;9.258;2024-03-22T00:02:38;8.20;99.00
41756;DHT22;27435;48.480;9.258;2024-03-22T00:05:04;8.10;99.00
41756;DHT22;27435;48.480;9.258;2024-03-22T00:07:30;8.10;99.00
41756;DHT22;27435;48.480;9.258;2024-03-22T00:09:56;8.00;99.00
41756;DHT22;27435;48.480;9.258;2024-03-22T00:12:22;8.20;99.00
41756;DHT22;27435;48.480;9.258;2024-03-22T00:14:48;8.10;99.00
41756;DHT22;27435;48.480;9.258;2024-03-22T00:17:13;8.00;99.00
41756;DHT22;27435;48.480;9.258;2024-03-22T00:19:39;8.10;99.00
41756;DHT22;27435;48.480;9.258;2024-03-22T00:22:05;7.90;99.00
41756;DHT22;27435;48.480;9.258;2024-03-22T00:24:30;7.80;99.00
41756;DHT22;27435;48.480;9.258;2024-03-22T00:26:56;7.50;99.00
41756;DHT22;27435;48.480;9.258;2024-03-22T00:29:21;7.40;99.00
41756;DHT22;27435;48.480;9.258;2024-03-22T00:31:47;7.40;99.00
41756;DHT22;27435;48.480;9.258;2024-03-22T00:34:13;7.40;99.00
41756;DHT22;27435;48.480;9.258;2024-03-22T00:36:38;7.40;99.00
41756;DHT22;27435;48.480;9.258;2024-03-22T00:39:04;7.40;99.00
41756;DHT22;27435;48.480;9.258;2024-03-22T00:41:30;7.40;99.00
41756;DHT22;27435;48.480;9.258;2024-03-22T00:43:57;7.30;99.00
41756;DHT22;27435;48.480;9.258;2024-03-22T00:46:23;7.40;99.00
41756;DHT22;27435;48.480;9.258;2024-03-22T00:48:48;7.40;99.00
41756;DHT22;27435;48.480;9.258;2024-03-22T00:51:14;7.40;99.00
41756;DHT22;27435;48.480;9.258;2024-03-22T00:53:40;7.30;99.00
41756;DHT22;27435;48.480;9.258;2024-03-22T00:56:05;7.30;99.00
41756;DHT22;27435;48.480;9.258;2024-03-22T00:58:31;7.30;99.00
41756;DHT22;27435;48.480;9.258;2024-03-22T01:00:57;7.00;99.00
41756;DHT22;27435;48.480;9.258;2024-03-22T01:03:22;6.90;99.00
41756;DHT22;27435;48.480;9.258;2024-03-22T01:05:48;7.10;99.00
41756;DHT22;27435;48.480;9.258;2024-03-22T01:08:14;7.20;99.00
41756;DHT22;27435;48.480;9.258;2024-03-22T01:10:40;7.00;99.00
41756;DHT22;27435;48.480;9.258;2024-03-22T01:13:06;6.60;99.00
41756;DHT22;27435;48.480;9.258;2024-03-22T01:15:32;6.50;99.00
41756;DHT22;27435;48.480;9.258;2024-03-22T01:17:57;6.30;99.00
41756;DHT22;27435;48.480;9.258;2024-03-22T01:20:23;6.20;99.00
41756;DHT22;27435;48.480;9.258;2024-03-22T01:22:48;6.20;99.00
41756;DHT22;27435;48.480;9.258;2024-03-22T01:25:14;6.30;99.00
41756;DHT22;27435;48.480;9.258;2024-03-22T01:27:40;6.10;99.00
41756;DHT22;27435;48.480;9.258;2024-03-22T01:30:06;6.10;99.00
41756;DHT22;27435;48.480;9.258;2024-03-22T01:32:32;6.00;99.00
41756;DHT22;27435;48.480;9.258;2024-03-22T01:34:58;6.30;99.00
41756;DHT22;27435;48.480;9.258;2024-03-22T01:37:23;6.50;99.00
41756;DHT22;27435;48.480;9.258;2024-03-22T01:39:49;6.60;99.00
41756;DHT22;27435;48.480;9.258;2024-03-22T01:42:14;6.80;99.00
41756;DHT22;27435;48.480;9.258;2024-03-22T01:44:41;6.80;99.00
41756;DHT22;27435;48.480;9.258;2024-03-22T01:47:07;6.70;99.00
41756;DHT22;27435;48.480;9.258;2024-03-22T01:49:32;6.50;99.00
41756;DHT22;27435;48.480;9.258;2024-03-22T01:51:58;6.40;99.00
41756;DHT22;27435;48.480;9.258;2024-03-22T01:54:24;6.40;99.00
41756;DHT22;27435;48.480;9.258;2024-03-22T01:56:49;6.40;99.00
41756;DHT22;27435;48.480;9.258;2024-03-22T01:59:15;6.30;99.00
41756;DHT22;27435;48.480;9.258;2024-03-22T02:01:42;6.20;99.00
41756;DHT22;27435;48.480;9.258;2024-03-22T02:04:07;6.20;99.00
41756;DHT22;27435;48.480;9.258;2024-03-22T02:06:33;6.30;99.00
41756;DHT22;27435;48.480;9.258;2024-03-22T02:09:00;6.30;99.00
41756;DHT22;27435;48.480;9.258;2024-03-22T02:11:26;6.30;99.00
41756;DHT22;27435;48.480;9.258;2024-03-22T02:13:52;6.20;99.00
41756;DHT22;27435;48.480;9.258;2024-03-22T02:16:17;5.90;99.00
41756;DHT22;27435;48.480;9.258;2024-03-22T02:18:43;5.80;99.00
41756;DHT22;27435;48.480;9.258;2024-03-22T02:21:10;5.70;99.00
41756;DHT22;27435;48.480;9.258;2024-03-22T02:23:37;5.70;99.00
41756;DHT22;27435;48.480;9.258;2024-03-22T02:26:03;5.90;99.00
41756;DHT22;27435;48.480;9.258;2024-03-22T02:28:30;5.90;99.00
41756;DHT22;27435;48.480;9.258;2024-03-22T02:30:56;5.80;99.00
41756;DHT22;27435;48.480;9.258;2024-03-22T02:33:21;5.70;99.00
41756;DHT22;27435;48.480;9.258;2024-03-22T02:35:48;5.60;99.00
41756;DHT22;27435;48.480;9.258;2024-03-22T02:38:14;5.60;99.00
41756;DHT22;27435;48.480;9.258;2024-03-22T02:40:39;5.60;99.00
41756;DHT22;27435;48.480;9.258;2024-03-22T02:43:05;5.60;99.00
41756;DHT22;27435;48.480;9.258;2024-03-22T02:45:31;5.50;99.00
41756;DHT22;27435;48.480;9.258;2024-03-22T02:47:57;5.60;99.00
41756;DHT22;27435;48.480;9.258;2024-03-22T02:50:23;5.70;99.00
41756;DHT22;27435;48.480;9.258;2024-03-22T02:52:49;5.70;99.00
41756;DHT22;27435;48.480;9.258;2024-03-22T02:55:15;5.70;99.00
41756;DHT22;27435;48.480;9.258;2024-03-22T02:57:41;5.60;99.00
41756;DHT22;27435;48.480;9.258;2024-03-22T03:00:07;5.60;99.00
41756;DHT22;27435;48.480;9.258;2024-03-22T03:02:33;5.80;99.00
41756;DHT22;27435;48.480;9.258;2024-03-22T03:04:58;5.80;99.00
41756;DHT22;27435;48.480;9.258;2024-03-22T03:07:25;5.90;99.00
41756;DHT22;27435;48.480;9.258;2024-03-22T03:09:50;5.80;99.00
41756;DHT22;27435;48.480;9.258;2024-03-22T03:12:16;5.80;99.00
41756;DHT22;27435;48.480;9.258;2024-03-22T03:14:42;5.80;99.00
41756;DHT22;27435;48.480;9.258;2024-03-22T03:17:08;5.80;99.00
41756;DHT22;27435;48.480;9.258;2024-03-22T03:19:33;5.70;99.00
41756;DHT22;27435;48.480;9.258;2024-03-22T03:21:59;5.60;99.00
41756;DHT22;27435;48.480;9.258;2024-03-22T03:24:25;5.60;99.00
41756;DHT22;27435;48.480;9.258;2024-03-22T03:26:51;5.70;99.00
41756;DHT22;27435;48.480;9.258;2024-03-22T03:29:17;5.80;99.00
41756;DHT22;27435;48.480;9.258;2024-03-22T03:31:42;5.90;99.00
41756;DHT22;27435;48.480;9.258;2024-03-22T03:34:08;5.80;99.00
41756;DHT22;27435;48.480;9.258;2024-03-22T03:36:34;5.90;99.00
41756;DHT22;27435;48.480;9.258;2024-03-22T03:38:59;5.90;99.00
41756;DHT22;27435;48.480;9.258;2024-03-22T03:41:25;6.00;99.00
41756;DHT22;27435;48.480;9.258;2024-03-22T03:43:50;5.90;99.00
41756;DHT22;27435;48.480;9.258;2024-03-22T03:46:16;6.00;99.00
41756;DHT22;27435;48.480;9.258;2024-03-22T03:48:41;6.10;99.00
41756;DHT22;27435;48.480;9.258;2024-03-22T03:51:07;6.00;99.00
41756;DHT22;27435;48.480;9.258;2024-03-22T03:53:33;6.20;99.00
41756;DHT22;27435;48.480;9.258;2024-03-22T03:55:58;6.10;99.00
41756;DHT22;27435;48.480;9.258;2024-03-22T03:58:24;6.30;99.00
41756;DHT22;27435;48.480;9.258;2024-03-22T04:00:50;6.50;99.00
41756;DHT22;27435;48.480;9.258;2024-03-22T04:03:15;6.60;99.00
41756;DHT22;27435;48.480;9.258;2024-03-22T04:05:41;6.80;99.00
41756;DHT22;27435;48.480;9.258;2024-03-22T04:08:07;6.80;99.00
41756;DHT22;27435;48.480;9.258;2024-03-22T04:10:32;6.70;99.00
41756;DHT22;27435;48.480;9.258;2024-03-22T04:12:58;6.70;99.00
41756;DHT22;27435;48.480;9.258;2024-03-22T04:15:24;6.80;99.00
41756;DHT22;27435;48.480;9.258;2024-03-22T04:17:49;6.80;99.00
41756;DHT22;27435;48.480;9.258;2024-03-22T04:20:15;6.60;99.00
41756;DHT22;27435;48.480;9.258;2024-03-22T04:22:40;6.40;99.00
41756;DHT22;27435;48.480;9.258;2024-03-22T04:25:06;6.50;99.00
41756;DHT22;27435;48.480;9.258;2024-03-22T04:27:36;6.40;99.00
41756;DHT22;27435;48.480;9.258;2024-03-22T04:30:02;6.40;99.00
41756;DHT22;27435;48.480;9.258;2024-03-22T04:32:27;6.40;99.00
41756;DHT22;27435;48.480;9.258;2024-03-22T04:34:53;6.30;99.00
41756;DHT22;27435;48.480;9.258;2024-03-22T04:37:20;6.30;99.00
41756;DHT22;27435;48.480;9.258;2024-03-22T04:39:46;6.10;99.00
41756;DHT22;27435;48.480;9.258;2024-03-22T04:42:12;5.90;99.00
41756;DHT22;27435;48.480;9.258;2024-03-22T04:44:37;5.90;99.00
41756;DHT22;27435;48.480;9.258;2024-03-22T04:47:03;6.00;99.00
41756;DHT22;27435;48.480;9.258;2024-03-22T04:49:29;5.90;99.00
41756;DHT22;27435;48.480;9.258;2024-03-22T04:51:55;5.90;99.00
41756;DHT22;27435;48.480;9.258;2024-03-22T04:54:20;5.80;99.00
41756;DHT22;27435;48.480;9.258;2024-03-22T04:56:46;5.60;99.00
41756;DHT22;27435;48.480;9.258;2024-03-22T04:59:11;5.60;99.00
41756;DHT22;27435;48.480;9.258;2024-03-22T05:01:37;5.50;99.00
41756;DHT22;27435;48.480;9.258;2024-03-22T05:04:02;5.50;99.00
41756;DHT22;27435;48.480;9.258;2024-03-22T05:06:28;5.50;99.00
41756;DHT22;27435;48.480;9.258;2024-03-22T05:08:54;5.60;99.00
41756;DHT22;27435;48.480;9.258;2024-03-22T05:11:19;5.70;99.00
41756;DHT22;27435;48.480;9.258;2024-03-22T05:13:45;5.80;99.00
41756;DHT22;27435;48.480;9.258;2024-03-22T05:16:12;5.90;99.00
41756;DHT22;27435;48.480;9.258;2024-03-22T05:18:38;5.90;99.00
41756;DHT22;27435;48.480;9.258;2024-03-22T05:21:03;6.00;99.00
41756;DHT22;27435;48.480;9.258;2024-03-22T05:23:29;6.20;99.00
41756;DHT22;27435;48.480;9.258;2024-03-22T05:25:55;6.30;99.00
41756;DHT22;27435;48.480;9.258;2024-03-22T05:28:20;6.10;99.00
41756;DHT22;27435;48.480;9.258;2024-03-22T05:30:47;6.00;99.00
41756;DHT22;27435;48.480;9.258;2024-03-22T05:33:12;6.00;99.00
41756;DHT22;27435;48.480;9.258;2024-03-22T05:35:38;5.80;99.00
41756;DHT22;27435;48.480;9.258;2024-03-22T05:38:03;5.70;99.00
41756;DHT22;27435;48.480;9.258;2024-03-22T05:40:29;5.70;99.00
41756;DHT22;27435;48.480;9.258;2024-03-22T05:42:55;5.80;99.00
41756;DHT22;27435;48.480;9.258;2024-03-22T05:45:21;5.90;99.00
41756;DHT22;27435;48.480;9.258;2024-03-22T05:47:50;6.00;99.00
41756;DHT22;27435;48.480;9.258;2024-03-22T05:50:16;6.20;99.00
41756;DHT22;27435;48.480;9.258;2024-03-22T05:52:41;6.10;99.00
41756;DHT22;27435;48.480;9.258;2024-03-22T05:55:07;6.20;99.00
41756;DHT22;27435;48.480;9.258;2024-03-22T05:57:33;6.20;99.00
41756;DHT22;27435;48.480;9.258;2024-03-22T05:59:58;6.20;99.00
41756;DHT22;27435;48.480;9.258;2024-03-22T06:02:24;6.40;99.00
41756;DHT22;27435;48.480;9.258;2024-03-22T06:04:49;6.40;99.00
41756;DHT22;27435;48.480;9.258;2024-03-22T06:07:15;6.50;99.00
41756;DHT22;27435;48.480;9.258;2024-03-22T06:09:42;6.70;99.00
41756;DHT22;27435;48.480;9.258;2024-03-22T06:12:15;6.80;99.00
41756;DHT22;27435;48.480;9.258;2024-03-22T06:14:41;6.60;99.00
41756;DHT22;27435;48.480;9.258;2024-03-22T06:17:08;6.60;99.00
41756;DHT22;27435;48.480;9.258;2024-03-22T06:19:35;6.60;99.00
41756;DHT22;27435;48.480;9.258;2024-03-22T06:22:00;6.60;99.00
41756;DHT22;27435;48.480;9.258;2024-03-22T06:24:26;6.70;99.00
41756;DHT22;27435;48.480;9.258;2024-03-22T06:26:52;6.90;99.00
41756;DHT22;27435;48.480;9.258;2024-03-22T06:29:18;6.70;99.00
41756;DHT22;27435;48.480;9.258;2024-03-22T06:31:43;6.60;99.00
41756;DHT22;27435;48.480;9.258;2024-03-22T06:34:09;6.70;99.00
41756;DHT22;27435;48.480;9.258;2024-03-22T06:36:35;6.60;99.00
41756;DHT22;27435;48.480;9.258;2024-03-22T06:39:00;6.70;99.00
41756;DHT22;27435;48.480;9.258;2024-03-22T06:41:27;6.60;99.00
41756;DHT22;27435;48.480;9.258;2024-03-22T06:43:53;6.90;99.00
41756;DHT22;27435;48.480;9.258;2024-03-22T06:46:18;7.00;99.00
41756;DHT22;27435;48.480;9.258;2024-03-22T06:48:45;7.10;99.00
41756;DHT22;27435;48.480;9.258;2024-03-22T06:51:12;7.20;99.00
41756;DHT22;27435;48.480;9.258;2024-03-22T06:53:37;7.10;99.00
41756;DHT22;27435;48.480;9.258;2024-03-22T06:56:04;7.20;99.00
41756;DHT22;27435;48.480;9.258;2024-03-22T06:58:29;7.30;99.00
41756;DHT22;27435;48.480;9.258;2024-03-22T07:00:55;7.50;99.00
41756;DHT22;27435;48.480;9.258;2024-03-22T07:03:20;7.60;99.00
41756;DHT22;27435;48.480;9.258;2024-03-22T07:05:47;7.80;99.00
41756;DHT22;27435;48.480;9.258;2024-03-22T07:08:13;8.10;99.00
41756;DHT22;27435;48.480;9.258;2024-03-22T07:10:39;8.20;99.00
41756;DHT22;27435;48.480;9.258;2024-03-22T07:13:05;8.20;99.00
41756;DHT22;27435;48.480;9.258;2024-03-22T07:15:31;8.40;99.00
41756;DHT22;27435;48.480;9.258;2024-03-22T07:17:58;8.60;99.00
41756;DHT22;27435;48.480;9.258;2024-03-22T07:20:24;8.60;99.00
41756;DHT22;27435;48.480;9.258;2024-03-22T07:22:50;8.80;99.00
41756;DHT22;27435;48.480;9.258;2024-03-22T07:25:15;8.90;99.00
41756;DHT22;27435;48.480;9.258;2024-03-22T07:27:41;9.10;99.00
41756;DHT22;27435;48.480;9.258;2024-03-22T07:30:07;9.40;99.00
41756;DHT22;27435;48.480;9.258;2024-03-22T07:32:33;9.50;99.00
41756;DHT22;27435;48.480;9.258;2024-03-22T07:34:58;9.60;99.00
41756;DHT22;27435;48.480;9.258;2024-03-22T07:37:24;9.60;99.00
41756;DHT22;27435;48.480;9.258;2024-03-22T07:39:50;9.70;99.00
41756;DHT22;27435;48.480;9.258;2024-03-22T07:42:15;9.90;99.00
41756;DHT22;27435;48.480;9.258;2024-03-22T07:44:41;10.00;99.00
41756;DHT22;27435;48.480;9.258;2024-03-22T07:47:07;10.10;99.00
41756;DHT22;27435;48.480;9.258;2024-03-22T07:49:33;10.30;99.00
41756;DHT22;27435;48.480;9.258;2024-03-22T07:52:00;10.30;99.00
41756;DHT22;27435;48.480;9.258;2024-03-22T07:54:26;10.10;99.00
41756;DHT22;27435;48.480;9.258;2024-03-22T07:56:51;10.20;99.00
41756;DHT22;27435;48.480;9.258;2024-03-22T07:59:17;10.40;99.00
41756;DHT22;27435;48.480;9.258;2024-03-22T08:01:42;10.40;99.00
41756;DHT22;27435;48.480;9.258;2024-03-22T08:04:08;10.40;99.00
41756;DHT22;27435;48.480;9.258;2024-03-22T08:06:34;10.70;99.00
41756;DHT22;27435;48.480;9.258;2024-03-22T08:08:59;10.90;99.00
41756;DHT22;27435;48.480;9.258;2024-03-22T08:11:27;11.00;99.00
41756;DHT22;27435;48.480;9.258;2024-03-22T08:13:52;11.10;99.00
41756;DHT22;27435;48.480;9.258;2024-03-22T08:16:18;11.30;99.00
41756;DHT22;27435;48.480;9.258;2024-03-22T08:18:45;11.40;99.00
41756;DHT22;27435;48.480;9.258;2024-03-22T08:21:10;11.70;99.00
41756;DHT22;27435;48.480;9.258;2024-03-22T08:23:36;11.80;99.00
41756;DHT22;27435;48.480;9.258;2024-03-22T08:26:01;12.00;99.00
41756;DHT22;27435;48.480;9.258;2024-03-22T08:28:27;12.20;99.00
41756;DHT22;27435;48.480;9.258;2024-03-22T08:30:53;12.30;98.90
41756;DHT22;27435;48.480;9.258;2024-03-22T08:33:18;12.40;99.00
41756;DHT22;27435;48.480;9.258;2024-03-22T08:35:44;12.50;99.00
41756;DHT22;27435;48.480;9.258;2024-03-22T08:38:10;12.40;99.00
41756;DHT22;27435;48.480;9.258;2024-03-22T08:40:39;12.60;98.90
41756;DHT22;27435;48.480;9.258;2024-03-22T08:43:05;12.50;99.00
41756;DHT22;27435;48.480;9.258;2024-03-22T08:45:33;12.90;98.40
41756;DHT22;27435;48.480;9.258;2024-03-22T08:47:58;12.80;97.50
41756;DHT22;27435;48.480;9.258;2024-03-22T08:50:24;13.00;96.30
41756;DHT22;27435;48.480;9.258;2024-03-22T08:52:50;13.10;96.50
41756;DHT22;27435;48.480;9.258;2024-03-22T08:55:17;13.40;95.10
41756;DHT22;27435;48.480;9.258;2024-03-22T08:57:42;13.70;94.10
41756;DHT22;27435;48.480;9.258;2024-03-22T09:00:09;13.70;92.80
41756;DHT22;27435;48.480;9.258;2024-03-22T09:02:35;13.70;93.00
41756;DHT22;27435;48.480;9.258;2024-03-22T09:05:01;13.90;93.20
41756;DHT22;27435;48.480;9.258;2024-03-22T09:07:27;14.20;91.80
41756;DHT22;27435;48.480;9.258;2024-03-22T09:09:52;14.30;90.20
41756;DHT22;27435;48.480;9.258;2024-03-22T09:12:19;14.30;89.50
41756;DHT22;27435;48.480;9.258;2024-03-22T09:14:45;14.20;89.10
41756;DHT22;27435;48.480;9.258;2024-03-22T09:17:10;14.20;89.90
41756;DHT22;27435;48.480;9.258;2024-03-22T09:19:36;14.40;90.10
41756;DHT22;27435;48.480;9.258;2024-03-22T09:22:02;14.60;88.20
41756;DHT22;27435;48.480;9.258;2024-03-22T09:24:28;14.50;87.70
41756;DHT22;27435;48.480;9.258;2024-03-22T09:26:54;14.50;88.20
41756;DHT22;27435;48.480;9.258;2024-03-22T09:29:19;14.50;88.00
41756;DHT22;27435;48.480;9.258;2024-03-22T09:31:45;14.70;87.70
41756;DHT22;27435;48.480;9.258;2024-03-22T09:34:12;14.80;86.90
41756;DHT22;27435;48.480;9.258;2024-03-22T09:36:38;14.90;86.00
41756;DHT22;27435;48.480;9.258;2024-03-22T09:39:04;15.00;86.00
41756;DHT22;27435;48.480;9.258;2024-03-22T09:41:32;14.80;84.70
41756;DHT22;27435;48.480;9.258;2024-03-22T09:43:58;14.90;85.80
41756;DHT22;27435;48.480;9.258;2024-03-22T09:46:26;15.10;83.70
41756;DHT22;27435;48.480;9.258;2024-03-22T09:48:54;15.00;83.40
41756;DHT22;27435;48.480;9.258;2024-03-22T09:51:19;14.90;83.50
41756;DHT22;27435;48.480;9.258;2024-03-22T09:53:48;15.00;82.80
41756;DHT22;27435;48.480;9.258;2024-03-22T09:56:14;15.20;83.20
41756;DHT22;27435;48.480;9.258;2024-03-22T09:58:44;15.70;82.80
41756;DHT22;27435;48.480;9.258;2024-03-22T10:01:11;15.90;81.90
41756;DHT22;27435;48.480;9.258;2024-03-22T10:03:37;15.80;81.30
41756;DHT22;27435;48.480;9.258;2024-03-22T10:06:03;15.60;81.30
41756;DHT22;27435;48.480;9.258;2024-03-22T10:08:30;15.40;82.30
41756;DHT22;27435;48.480;9.258;2024-03-22T10:10:56;15.80;81.80
41756;DHT22;27435;48.480;9.258;2024-03-22T10:13:21;16.30;80.10
41756;DHT22;27435;48.480;9.258;2024-03-22T10:15:47;16.30;79.00
41756;DHT22;27435;48.480;9.258;2024-03-22T10:18:14;16.30;79.80
41756;DHT22;27435;48.480;9.258;2024-03-22T10:20:40;16.30;79.80
41756;DHT22;27435;48.480;9.258;2024-03-22T10:23:07;16.50;79.30
41756;DHT22;27435;48.480;9.258;2024-03-22T10:25:34;16.70;79.10
41756;DHT22;27435;48.480;9.258;2024-03-22T10:27:59;16.90;78.40
41756;DHT22;27435;48.480;9.258;2024-03-22T10:30:45;17.10;78.40
41756;DHT22;27435;48.480;9.258;2024-03-22T10:33:37;17.70;76.80
41756;DHT22;27435;48.480;9.258;2024-03-22T10:36:47;17.80;74.60
41756;DHT22;27435;48.480;9.258;2024-03-22T10:39:23;17.70;73.90
41756;DHT22;27435;48.480;9.258;2024-03-22T10:42:23;17.70;74.20
41756;DHT22;27435;48.480;9.258;2024-03-22T10:45:20;17.60;73.20
41756;DHT22;27435;48.480;9.258;2024-03-22T10:48:01;17.30;74.50
41756;DHT22;27435;48.480;9.258;2024-03-22T10:50:41;17.00;75.00
41756;DHT22;27435;48.480;9.258;2024-03-22T10:53:28;17.20;74.80
41756;DHT22;27435;48.480;9.258;2024-03-22T10:56:40;17.50;73.30
41756;DHT22;27435;48.480;9.258;2024-03-22T11:02:24;17.50;74.00
41756;DHT22;27435;48.480;9.258;2024-03-22T11:05:05;17.50;72.80
41756;DHT22;27435;48.480;9.258;2024-03-22T11:10:35;17.70;72.00
41756;DHT22;27435;48.480;9.258;2024-03-22T11:13:01;17.90;70.70
41756;DHT22;27435;48.480;9.258;2024-03-22T11:15:31;18.10;70.10
41756;DHT22;27435;48.480;9.258;2024-03-22T11:17:57;18.30;68.90
41756;DHT22;27435;48.480;9.258;2024-03-22T11:20:24;17.70;68.50
41756;DHT22;27435;48.480;9.258;2024-03-22T11:22:51;17.40;70.30
41756;DHT22;27435;48.480;9.258;2024-03-22T11:25:17;17.40;70.60
41756;DHT22;27435;48.480;9.258;2024-03-22T11:27:44;17.50;70.10
41756;DHT22;27435;48.480;9.258;2024-03-22T11:30:10;17.80;70.50
41756;DHT22;27435;48.480;9.258;2024-03-22T11:32:36;18.20;69.50
41756;DHT22;27435;48.480;9.258;2024-03-22T11:35:09;18.20;66.30
41756;DHT22;27435;48.480;9.258;2024-03-22T11:37:35;17.90;66.90
41756;DHT22;27435;48.480;9.258;2024-03-22T11:40:01;17.90;66.50
41756;DHT22;27435;48.480;9.258;2024-03-22T11:42:33;17.80;66.00
41756;DHT22;27435;48.480;9.258;2024-03-22T11:45:01;17.80;66.70
41756;DHT22;27435;48.480;9.258;2024-03-22T11:47:27;17.80;66.30
41756;DHT22;27435;48.480;9.258;2024-03-22T11:49:54;18.10;66.40
41756;DHT22;27435;48.480;9.258;2024-03-22T11:52:25;18.50;66.00
41756;DHT22;27435;48.480;9.258;2024-03-22T11:54:51;18.40;63.40
41756;DHT22;27435;48.480;9.258;2024-03-22T11:57:23;18.40;63.40
41756;DHT22;27435;48.480;9.258;2024-03-22T11:59:50;18.80;63.20
41756;DHT22;27435;48.480;9.258;2024-03-22T12:02:16;18.70;62.40
41756;DHT22;27435;48.480;9.258;2024-03-22T12:04:46;18.60;60.90
41756;DHT22;27435;48.480;9.258;2024-03-22T12:07:17;18.70;60.00
41756;DHT22;27435;48.480;9.258;2024-03-22T12:09:43;18.90;59.70
41756;DHT22;27435;48.480;9.258;2024-03-22T12:12:11;19.00;60.30
41756;DHT22;27435;48.480;9.258;2024-03-22T12:14:37;18.80;61.20
41756;DHT22;27435;48.480;9.258;2024-03-22T12:17:04;18.50;62.30
41756;DHT22;27435;48.480;9.258;2024-03-22T12:19:30;18.60;62.90
41756;DHT22;27435;48.480;9.258;2024-03-22T12:21:55;18.50;63.90
41756;DHT22;27435;48.480;9.258;2024-03-22T12:24:22;18.70;64.00
41756;DHT22;27435;48.480;9.258;2024-03-22T12:26:48;18.60;64.00
41756;DHT22;27435;48.480;9.258;2024-03-22T12:29:16;18.70;64.90
41756;DHT22;27435;48.480;9.258;2024-03-22T12:31:42;19.00;62.40
41756;DHT22;27435;48.480;9.258;2024-03-22T12:34:08;19.10;62.20
41756;DHT22;27435;48.480;9.258;2024-03-22T12:36:33;19.30;60.10
41756;DHT22;27435;48.480;9.258;2024-03-22T12:38:59;19.30;62.20
41756;DHT22;27435;48.480;9.258;2024-03-22T12:41:25;19.80;59.70
41756;DHT22;27435;48.480;9.258;2024-03-22T12:43:50;20.10;58.80
41756;DHT22;27435;48.480;9.258;2024-03-22T12:46:16;20.30;58.60
41756;DHT22;27435;48.480;9.258;2024-03-22T12:48:41;20.30;59.90
41756;DHT22;27435;48.480;9.258;2024-03-22T12:51:07;20.20;58.30
41756;DHT22;27435;48.480;9.258;2024-03-22T12:53:33;20.10;57.60
41756;DHT22;27435;48.480;9.258;2024-03-22T12:55:59;20.00;57.50
41756;DHT22;27435;48.480;9.258;2024-03-22T12:58:24;20.20;57.20
41756;DHT22;27435;48.480;9.258;2024-03-22T13:00:50;20.50;56.60
41756;DHT22;27435;48.480;9.258;2024-03-22T13:03:15;20.40;56.80
41756;DHT22;27435;48.480;9.258;2024-03-22T13:05:42;20.40;56.90
41756;DHT22;27435;48.480;9.258;2024-03-22T13:08:08;20.50;57.10
41756;DHT22;27435;48.480;9.258;2024-03-22T13:10:33;20.30;56.50
41756;DHT22;27435;48.480;9.258;2024-03-22T13:12:59;20.30;55.80
41756;DHT22;27435;48.480;9.258;2024-03-22T13:15:25;20.60;55.80
41756;DHT22;27435;48.480;9.258;2024-03-22T13:17:51;20.70;54.80
41756;DHT22;27435;48.480;9.258;2024-03-22T13:20:18;20.70;53.80
41756;DHT22;27435;48.480;9.258;2024-03-22T13:22:44;20.70;54.90
41756;DHT22;27435;48.480;9.258;2024-03-22T13:25:10;20.60;54.90
41756;DHT22;27435;48.480;9.258;2024-03-22T13:27:37;20.20;56.40
41756;DHT22;27435;48.480;9.258;2024-03-22T13:30:06;20.30;56.20
41756;DHT22;27435;48.480;9.258;2024-03-22T13:32:38;20.40;56.30
41756;DHT22;27435;48.480;9.258;2024-03-22T13:35:05;20.60;54.70
41756;DHT22;27435;48.480;9.258;2024-03-22T13:37:31;20.70;55.00
41756;DHT22;27435;48.480;9.258;2024-03-22T13:39:57;20.60;53.70
41756;DHT22;27435;48.480;9.258;2024-03-22T13:42:23;20.60;55.10
41756;DHT22;27435;48.480;9.258;2024-03-22T13:44:48;21.00;53.90
41756;DHT22;27435;48.480;9.258;2024-03-22T13:47:14;21.20;52.70
41756;DHT22;27435;48.480;9.258;2024-03-22T13:49:39;21.70;51.80
41756;DHT22;27435;48.480;9.258;2024-03-22T13:52:07;21.90;50.80
41756;DHT22;27435;48.480;9.258;2024-03-22T13:54:33;22.10;49.60
41756;DHT22;27435;48.480;9.258;2024-03-22T13:56:58;22.30;49.80
41756;DHT22;27435;48.480;9.258;2024-03-22T13:59:26;22.40;48.30
41756;DHT22;27435;48.480;9.258;2024-03-22T14:01:51;22.30;46.80
41756;DHT22;27435;48.480;9.258;2024-03-22T14:04:18;22.10;47.50
41756;DHT22;27435;48.480;9.258;2024-03-22T14:06:45;22.40;47.00
41756;DHT22;27435;48.480;9.258;2024-03-22T14:09:11;22.50;46.80
41756;DHT22;27435;48.480;9.258;2024-03-22T14:11:38;23.00;46.80
41756;DHT22;27435;48.480;9.258;2024-03-22T14:14:04;23.50;46.50
41756;DHT22;27435;48.480;9.258;2024-03-22T14:16:30;23.40;40.60
41756;DHT22;27435;48.480;9.258;2024-03-22T14:18:55;22.20;41.00
41756;DHT22;27435;48.480;9.258;2024-03-22T14:21:21;21.60;42.00
41756;DHT22;27435;48.480;9.258;2024-03-22T14:23:50;21.70;42.20
41756;DHT22;27435;48.480;9.258;2024-03-22T14:26:17;21.90;42.50
41756;DHT22;27435;48.480;9.258;2024-03-22T14:28:43;21.40;43.10
41756;DHT22;27435;48.480;9.258;2024-03-22T14:31:09;20.80;44.20
41756;DHT22;27435;48.480;9.258;2024-03-22T14:33:35;21.10;44.20
41756;DHT22;27435;48.480;9.258;2024-03-22T14:36:02;21.40;44.20
41756;DHT22;27435;48.480;9.258;2024-03-22T14:38:27;21.80;43.70
41756;DHT22;27435;48.480;9.258;2024-03-22T14:40:54;22.50;42.80
41756;DHT22;27435;48.480;9.258;2024-03-22T14:43:23;23.00;42.30
41756;DHT22;27435;48.480;9.258;2024-03-22T14:45:49;23.10;42.90
41756;DHT22;27435;48.480;9.258;2024-03-22T14:48:14;22.50;44.10
41756;DHT22;27435;48.480;9.258;2024-03-22T14:50:40;22.00;45.40
41756;DHT22;27435;48.480;9.258;2024-03-22T14:53:06;21.70;45.70
41756;DHT22;27435;48.480;9.258;2024-03-22T14:55:31;22.00;45.90
41756;DHT22;27435;48.480;9.258;2024-03-22T14:57:57;22.40;45.80
41756;DHT22;27435;48.480;9.258;2024-03-22T15:00:23;22.50;43.70
41756;DHT22;27435;48.480;9.258;2024-03-22T15:02:52;22.40;45.20
41756;DHT22;27435;48.480;9.258;2024-03-22T15:05:18;22.90;45.00
41756;DHT22;27435;48.480;9.258;2024-03-22T15:07:43;23.50;44.30
41756;DHT22;27435;48.480;9.258;2024-03-22T15:10:09;23.80;43.90
41756;DHT22;27435;48.480;9.258;2024-03-22T15:12:35;23.80;43.70
41756;DHT22;27435;48.480;9.258;2024-03-22T15:15:00;22.80;42.60
41756;DHT22;27435;48.480;9.258;2024-03-22T15:17:26;22.40;44.00
41756;DHT22;27435;48.480;9.258;2024-03-22T15:19:52;22.50;44.10
41756;DHT22;27435;48.480;9.258;2024-03-22T15:22:17;22.60;43.60
41756;DHT22;27435;48.480;9.258;2024-03-22T15:24:45;22.30;43.70
41756;DHT22;27435;48.480;9.258;2024-03-22T15:27:11;22.00;44.80
41756;DHT22;27435;48.480;9.258;2024-03-22T15:29:37;22.60;44.40
41756;DHT22;27435;48.480;9.258;2024-03-22T15:32:03;22.50;44.20
41756;DHT22;27435;48.480;9.258;2024-03-22T15:34:29;22.10;44.80
41756;DHT22;27435;48.480;9.258;2024-03-22T15:36:55;22.00;44.70
41756;DHT22;27435;48.480;9.258;2024-03-22T15:39:21;21.80;44.50